sensor_id;sensor_type;location;lat;lon;timestamp;pressure;altitude;pressure_sealevel;temperature;humidity
34243;BME280;20504;43.214;27.920;2022-12-07T11:22:11;96395.06;;;16.79;100.00
34243;BME280;20504;43.214;27.920;2022-12-07T11:28:07;96787.03;;;17.58;100.00
34243;BME280;20504;43.214;27.920;2022-12-07T11:33:28;97270.81;;;17.84;100.00
34243;BME280;20504;43.214;27.920;2022-12-07T11:36:04;97450.91;;;17.43;100.00
34243;BME280;20504;43.214;27.920;2022-12-07T11:39:02;97574.59;;;17.26;100.00
34243;BME280;20504;43.214;27.920;2022-12-07T11:41:40;97592.38;;;17.97;100.00
34243;BME280;20504;43.214;27.920;2022-12-07T11:47:09;97820.19;;;18.17;100.00
34243;BME280;20504;43.214;27.920;2022-12-07T11:52:57;98072.31;;;18.37;100.00
34243;BME280;20504;43.214;27.920;2022-12-07T11:55:58;98134.84;;;18.51;100.00
34243;BME280;20504;43.214;27.920;2022-12-07T12:04:19;98319.88;;;18.72;100.00
34243;BME280;20504;43.214;27.920;2022-12-07T12:06:43;98373.78;;;18.77;100.00
34243;BME280;20504;43.214;27.920;2022-12-07T12:10:04;98419.41;;;18.64;100.00
34243;BME280;20504;43.214;27.920;2022-12-07T12:22:56;98564.81;;;18.67;100.00
34243;BME280;20504;43.214;27.920;2022-12-07T12:25:27;98591.75;;;18.87;100.00
34243;BME280;20504;43.214;27.920;2022-12-07T12:27:56;98605.84;;;18.96;100.00
34243;BME280;20504;43.214;27.920;2022-12-07T12:30:31;98634.19;;;18.98;100.00
34243;BME280;20504;43.214;27.920;2022-12-07T12:33:17;98660.69;;;19.08;100.00
34243;BME280;20504;43.214;27.920;2022-12-07T12:35:45;98723.66;;;18.99;100.00
34243;BME280;20504;43.214;27.920;2022-12-07T12:38:34;98819.41;;;18.85;100.00
34243;BME280;20504;43.214;27.920;2022-12-07T12:46:51;98868.81;;;18.69;100.00
34243;BME280;20504;43.214;27.920;2022-12-07T12:51:51;98866.91;;;18.85;100.00
34243;BME280;20504;43.214;27.920;2022-12-07T12:54:23;98878.06;;;18.82;100.00
34243;BME280;20504;43.214;27.920;2022-12-07T12:57:11;98889.09;;;18.93;100.00
34243;BME280;20504;43.214;27.920;2022-12-07T13:02:32;98956.25;;;18.93;100.00
34243;BME280;20504;43.214;27.920;2022-12-07T13:15:51;99067.94;;;18.29;100.00
34243;BME280;20504;43.214;27.920;2022-12-07T13:23:29;99102.88;;;17.83;100.00
34243;BME280;20504;43.214;27.920;2022-12-07T13:29:19;99060.16;;;17.81;100.00
34243;BME280;20504;43.214;27.920;2022-12-07T13:34:36;99076.75;;;17.85;100.00
34243;BME280;20504;43.214;27.920;2022-12-07T13:37:32;99044.44;;;17.78;100.00
34243;BME280;20504;43.214;27.920;2022-12-07T13:39:59;99015.16;;;17.46;100.00
34243;BME280;20504;43.214;27.920;2022-12-07T13:44:57;98852.31;;;17.71;100.00
34243;BME280;20504;43.214;27.920;2022-12-07T13:49:53;98855.28;;;17.23;100.00
34243;BME280;20504;43.214;27.920;2022-12-07T13:52:20;98845.00;;;17.12;100.00
34243;BME280;20504;43.214;27.920;2022-12-07T13:57:33;98798.53;;;17.05;100.00
34243;BME280;20504;43.214;27.920;2022-12-07T14:00:13;98777.84;;;16.99;100.00
34243;BME280;20504;43.214;27.920;2022-12-07T14:02:58;98742.16;;;16.84;100.00
34243;BME280;20504;43.214;27.920;2022-12-07T14:05:25;98703.31;;;16.88;100.00
34243;BME280;20504;43.214;27.920;2022-12-07T14:12:56;98667.13;;;16.77;100.00
34243;BME280;20504;43.214;27.920;2022-12-07T14:15:28;98670.06;;;16.68;100.00
34243;BME280;20504;43.214;27.920;2022-12-07T14:17:55;98662.03;;;16.45;100.00
34243;BME280;20504;43.214;27.920;2022-12-07T14:20:33;98626.53;;;16.51;100.00
34243;BME280;20504;43.214;27.920;2022-12-07T14:22:58;98631.72;;;16.15;100.00
34243;BME280;20504;43.214;27.920;2022-12-07T14:25:26;98606.28;;;16.33;100.00
34243;BME280;20504;43.214;27.920;2022-12-07T14:27:55;98567.94;;;16.41;100.00
34243;BME280;20504;43.214;27.920;2022-12-07T14:30:25;98543.22;;;16.39;100.00
34243;BME280;20504;43.214;27.920;2022-12-07T14:32:54;98561.47;;;16.35;100.00
34243;BME280;20504;43.214;27.920;2022-12-07T14:35:20;98578.34;;;16.36;100.00
34243;BME280;20504;43.214;27.920;2022-12-07T14:37:48;98620.50;;;16.34;100.00
34243;BME280;20504;43.214;27.920;2022-12-07T14:40:17;98628.00;;;16.39;100.00
34243;BME280;20504;43.214;27.920;2022-12-07T14:42:45;98658.13;;;16.32;100.00
34243;BME280;20504;43.214;27.920;2022-12-07T14:45:18;98672.88;;;16.28;100.00
34243;BME280;20504;43.214;27.920;2022-12-07T14:47:45;98686.91;;;16.30;100.00
34243;BME280;20504;43.214;27.920;2022-12-07T14:50:11;98714.84;;;16.28;100.00
34243;BME280;20504;43.214;27.920;2022-12-07T14:52:38;98731.38;;;16.31;100.00
34243;BME280;20504;43.214;27.920;2022-12-07T14:55:05;98749.06;;;16.32;100.00
34243;BME280;20504;43.214;27.920;2022-12-07T14:57:30;98766.78;;;16.33;100.00
34243;BME280;20504;43.214;27.920;2022-12-07T14:59:56;98777.38;;;16.27;100.00
34243;BME280;20504;43.214;27.920;2022-12-07T15:02:21;98791.59;;;16.27;100.00
34243;BME280;20504;43.214;27.920;2022-12-07T15:04:47;98785.09;;;16.22;100.00
34243;BME280;20504;43.214;27.920;2022-12-07T15:07:18;98807.50;;;16.21;100.00
34243;BME280;20504;43.214;27.920;2022-12-07T15:09:45;98799.53;;;16.13;100.00
34243;BME280;20504;43.214;27.920;2022-12-07T15:12:10;98815.28;;;16.08;100.00
34243;BME280;20504;43.214;27.920;2022-12-07T15:14:36;98812.41;;;16.09;100.00
34243;BME280;20504;43.214;27.920;2022-12-07T15:17:01;98808.19;;;16.15;100.00
34243;BME280;20504;43.214;27.920;2022-12-07T15:19:27;98824.66;;;16.03;100.00
34243;BME280;20504;43.214;27.920;2022-12-07T15:21:52;98818.00;;;15.99;100.00
34243;BME280;20504;43.214;27.920;2022-12-07T15:24:18;98817.13;;;15.99;100.00
34243;BME280;20504;43.214;27.920;2022-12-07T15:26:44;98805.34;;;15.85;100.00
34243;BME280;20504;43.214;27.920;2022-12-07T15:29:10;98800.63;;;15.95;100.00
34243;BME280;20504;43.214;27.920;2022-12-07T15:31:36;98799.44;;;15.98;100.00
34243;BME280;20504;43.214;27.920;2022-12-07T15:34:03;98786.25;;;15.96;100.00
34243;BME280;20504;43.214;27.920;2022-12-07T15:36:31;98792.34;;;15.82;100.00
34243;BME280;20504;43.214;27.920;2022-12-07T15:38:57;98781.31;;;15.85;100.00
34243;BME280;20504;43.214;27.920;2022-12-07T15:41:23;98748.88;;;15.88;100.00
34243;BME280;20504;43.214;27.920;2022-12-07T15:43:49;98761.94;;;15.83;100.00
34243;BME280;20504;43.214;27.920;2022-12-07T15:46:37;98772.34;;;15.70;100.00
34243;BME280;20504;43.214;27.920;2022-12-07T15:49:06;98772.53;;;15.68;100.00
34243;BME280;20504;43.214;27.920;2022-12-07T15:51:34;98763.19;;;15.56;100.00
34243;BME280;20504;43.214;27.920;2022-12-07T15:53:59;98758.19;;;15.53;100.00
34243;BME280;20504;43.214;27.920;2022-12-07T15:56:25;98751.03;;;15.45;100.00
34243;BME280;20504;43.214;27.920;2022-12-07T15:58:50;98733.66;;;15.50;100.00
34243;BME280;20504;43.214;27.920;2022-12-07T16:01:18;98733.13;;;15.54;100.00
34243;BME280;20504;43.214;27.920;2022-12-07T16:03:44;98721.44;;;15.63;100.00
34243;BME280;20504;43.214;27.920;2022-12-07T16:06:11;98701.38;;;15.67;100.00
34243;BME280;20504;43.214;27.920;2022-12-07T16:08:40;98693.84;;;15.71;100.00
34243;BME280;20504;43.214;27.920;2022-12-07T16:11:07;98656.59;;;15.69;100.00
34243;BME280;20504;43.214;27.920;2022-12-07T16:13:33;98647.59;;;15.70;100.00
34243;BME280;20504;43.214;27.920;2022-12-07T16:16:05;98646.13;;;15.60;100.00
34243;BME280;20504;43.214;27.920;2022-12-07T16:18:32;98618.63;;;15.51;100.00
34243;BME280;20504;43.214;27.920;2022-12-07T16:20:58;98546.00;;;15.48;100.00
34243;BME280;20504;43.214;27.920;2022-12-07T16:23:23;98514.63;;;15.72;100.00
34243;BME280;20504;43.214;27.920;2022-12-07T16:25:49;98476.97;;;15.59;100.00
34243;BME280;20504;43.214;27.920;2022-12-07T16:28:14;98473.06;;;15.47;100.00
34243;BME280;20504;43.214;27.920;2022-12-07T16:30:39;98428.13;;;15.51;100.00
34243;BME280;20504;43.214;27.920;2022-12-07T16:33:05;98356.38;;;15.48;100.00
34243;BME280;20504;43.214;27.920;2022-12-07T16:35:31;98294.75;;;15.49;100.00
34243;BME280;20504;43.214;27.920;2022-12-07T16:37:56;98266.75;;;15.45;100.00
34243;BME280;20504;43.214;27.920;2022-12-07T16:40:22;98190.47;;;15.42;100.00
34243;BME280;20504;43.214;27.920;2022-12-07T16:42:47;98167.47;;;15.41;100.00
34243;BME280;20504;43.214;27.920;2022-12-07T16:45:13;98100.00;;;15.33;100.00
34243;BME280;20504;43.214;27.920;2022-12-07T16:47:39;98054.66;;;15.39;100.00
34243;BME280;20504;43.214;27.920;2022-12-07T16:50:05;98033.69;;;15.36;100.00
34243;BME280;20504;43.214;27.920;2022-12-07T16:52:31;98004.69;;;15.33;100.00
34243;BME280;20504;43.214;27.920;2022-12-07T16:54:56;97948.63;;;15.33;100.00
34243;BME280;20504;43.214;27.920;2022-12-07T16:57:22;97886.69;;;15.23;100.00
34243;BME280;20504;43.214;27.920;2022-12-07T16:59:47;97840.16;;;15.32;100.00
34243;BME280;20504;43.214;27.920;2022-12-07T17:02:13;97799.31;;;15.38;100.00
34243;BME280;20504;43.214;27.920;2022-12-07T17:04:38;97770.50;;;15.27;100.00
34243;BME280;20504;43.214;27.920;2022-12-07T17:07:07;97707.78;;;15.44;100.00
34243;BME280;20504;43.214;27.920;2022-12-07T17:09:33;97694.38;;;15.38;100.00
34243;BME280;20504;43.214;27.920;2022-12-07T17:12:00;97687.97;;;15.32;100.00
34243;BME280;20504;43.214;27.920;2022-12-07T17:14:26;97678.66;;;15.22;100.00
34243;BME280;20504;43.214;27.920;2022-12-07T17:17:10;97639.91;;;15.26;100.00
34243;BME280;20504;43.214;27.920;2022-12-07T17:19:35;97632.25;;;15.16;100.00
34243;BME280;20504;43.214;27.920;2022-12-07T17:22:00;97615.63;;;15.21;100.00
34243;BME280;20504;43.214;27.920;2022-12-07T17:24:26;97602.88;;;15.09;100.00
34243;BME280;20504;43.214;27.920;2022-12-07T17:26:51;97602.88;;;15.09;100.00
34243;BME280;20504;43.214;27.920;2022-12-07T17:29:18;97603.00;;;15.01;100.00
34243;BME280;20504;43.214;27.920;2022-12-07T17:31:44;97600.13;;;14.96;100.00
34243;BME280;20504;43.214;27.920;2022-12-07T17:34:11;97615.16;;;14.69;100.00
34243;BME280;20504;43.214;27.920;2022-12-07T17:36:38;97581.66;;;14.67;100.00
34243;BME280;20504;43.214;27.920;2022-12-07T17:39:07;97574.03;;;14.57;100.00
34243;BME280;20504;43.214;27.920;2022-12-07T17:41:35;97534.06;;;14.64;100.00
34243;BME280;20504;43.214;27.920;2022-12-07T17:44:19;97492.28;;;14.71;100.00
34243;BME280;20504;43.214;27.920;2022-12-07T17:46:46;97468.47;;;14.76;100.00
34243;BME280;20504;43.214;27.920;2022-12-07T17:49:12;97448.78;;;14.70;100.00
34243;BME280;20504;43.214;27.920;2022-12-07T17:51:38;97450.75;;;14.55;100.00
34243;BME280;20504;43.214;27.920;2022-12-07T17:54:23;97427.41;;;14.64;100.00
34243;BME280;20504;43.214;27.920;2022-12-07T17:56:48;97407.69;;;14.58;100.00
34243;BME280;20504;43.214;27.920;2022-12-07T17:59:14;97386.97;;;14.60;100.00
34243;BME280;20504;43.214;27.920;2022-12-07T18:01:40;97386.75;;;14.55;100.00
34243;BME280;20504;43.214;27.920;2022-12-07T18:04:06;97358.47;;;14.54;100.00
34243;BME280;20504;43.214;27.920;2022-12-07T18:06:32;97333.44;;;14.55;100.00
34243;BME280;20504;43.214;27.920;2022-12-07T18:08:59;97323.19;;;14.59;100.00
34243;BME280;20504;43.214;27.920;2022-12-07T18:11:25;97300.00;;;14.59;100.00
34243;BME280;20504;43.214;27.920;2022-12-07T18:13:51;97281.78;;;14.69;100.00
34243;BME280;20504;43.214;27.920;2022-12-07T18:16:19;97271.28;;;14.61;100.00
34243;BME280;20504;43.214;27.920;2022-12-07T18:18:46;97264.31;;;14.60;100.00
34243;BME280;20504;43.214;27.920;2022-12-07T18:21:17;97246.69;;;14.59;100.00
34243;BME280;20504;43.214;27.920;2022-12-07T18:23:45;97233.13;;;14.67;100.00
34243;BME280;20504;43.214;27.920;2022-12-07T18:26:11;97228.84;;;14.73;100.00
34243;BME280;20504;43.214;27.920;2022-12-07T18:28:38;97232.13;;;14.75;100.00
34243;BME280;20504;43.214;27.920;2022-12-07T18:31:03;97228.44;;;14.76;100.00
34243;BME280;20504;43.214;27.920;2022-12-07T18:33:29;97240.13;;;14.75;100.00
34243;BME280;20504;43.214;27.920;2022-12-07T18:35:54;97241.16;;;14.80;100.00
34243;BME280;20504;43.214;27.920;2022-12-07T18:38:20;97235.41;;;14.83;100.00
34243;BME280;20504;43.214;27.920;2022-12-07T18:40:45;97248.13;;;14.81;100.00
34243;BME280;20504;43.214;27.920;2022-12-07T18:43:12;97248.94;;;14.82;100.00
34243;BME280;20504;43.214;27.920;2022-12-07T18:45:39;97299.59;;;14.62;100.00
34243;BME280;20504;43.214;27.920;2022-12-07T18:48:06;97290.56;;;14.63;100.00
34243;BME280;20504;43.214;27.920;2022-12-07T18:50:31;97276.00;;;14.66;100.00
34243;BME280;20504;43.214;27.920;2022-12-07T18:52:58;97267.41;;;14.77;100.00
34243;BME280;20504;43.214;27.920;2022-12-07T18:55:25;97273.13;;;14.67;100.00
34243;BME280;20504;43.214;27.920;2022-12-07T18:57:51;97283.81;;;14.67;100.00
34243;BME280;20504;43.214;27.920;2022-12-07T19:00:17;97283.19;;;14.59;100.00
34243;BME280;20504;43.214;27.920;2022-12-07T19:02:43;97268.81;;;14.60;100.00
34243;BME280;20504;43.214;27.920;2022-12-07T19:05:08;97274.78;;;14.55;100.00
34243;BME280;20504;43.214;27.920;2022-12-07T19:07:34;97298.13;;;14.46;100.00
34243;BME280;20504;43.214;27.920;2022-12-07T19:09:59;97302.22;;;14.49;100.00
34243;BME280;20504;43.214;27.920;2022-12-07T19:12:25;97289.13;;;14.54;100.00
34243;BME280;20504;43.214;27.920;2022-12-07T19:14:50;97300.59;;;14.48;100.00
34243;BME280;20504;43.214;27.920;2022-12-07T19:17:16;97295.69;;;14.51;100.00
34243;BME280;20504;43.214;27.920;2022-12-07T19:19:43;97292.81;;;14.53;100.00
34243;BME280;20504;43.214;27.920;2022-12-07T19:22:11;97292.22;;;14.51;100.00
34243;BME280;20504;43.214;27.920;2022-12-07T19:24:38;97293.66;;;14.53;100.00
34243;BME280;20504;43.214;27.920;2022-12-07T19:27:04;97316.53;;;14.41;100.00
34243;BME280;20504;43.214;27.920;2022-12-07T19:29:31;97297.91;;;14.48;100.00
34243;BME280;20504;43.214;27.920;2022-12-07T19:31:57;97303.91;;;14.57;100.00
34243;BME280;20504;43.214;27.920;2022-12-07T19:34:23;97329.34;;;14.52;100.00
34243;BME280;20504;43.214;27.920;2022-12-07T19:36:49;97349.59;;;14.47;100.00
34243;BME280;20504;43.214;27.920;2022-12-07T19:39:14;97388.44;;;14.28;100.00
34243;BME280;20504;43.214;27.920;2022-12-07T19:41:40;97363.81;;;14.67;100.00
34243;BME280;20504;43.214;27.920;2022-12-07T19:44:16;97404.00;;;14.59;100.00
34243;BME280;20504;43.214;27.920;2022-12-07T19:46:43;97462.97;;;14.43;100.00
34243;BME280;20504;43.214;27.920;2022-12-07T19:49:11;97460.81;;;14.53;100.00
34243;BME280;20504;43.214;27.920;2022-12-07T19:51:41;97476.50;;;14.41;100.00
34243;BME280;20504;43.214;27.920;2022-12-07T19:54:08;97500.28;;;14.43;100.00
34243;BME280;20504;43.214;27.920;2022-12-07T19:56:34;97518.09;;;14.36;100.00
34243;BME280;20504;43.214;27.920;2022-12-07T19:59:00;97496.69;;;14.50;100.00
34243;BME280;20504;43.214;27.920;2022-12-07T20:01:27;97514.19;;;14.32;100.00
34243;BME280;20504;43.214;27.920;2022-12-07T20:03:53;97533.50;;;14.40;100.00
34243;BME280;20504;43.214;27.920;2022-12-07T20:06:19;97530.16;;;14.32;100.00
34243;BME280;20504;43.214;27.920;2022-12-07T20:08:46;97528.94;;;14.34;100.00
34243;BME280;20504;43.214;27.920;2022-12-07T20:11:12;97516.50;;;14.13;100.00
34243;BME280;20504;43.214;27.920;2022-12-07T20:13:57;97527.16;;;14.13;100.00
34243;BME280;20504;43.214;27.920;2022-12-07T20:16:22;97547.97;;;14.03;100.00
34243;BME280;20504;43.214;27.920;2022-12-07T20:18:48;97529.72;;;14.00;100.00
34243;BME280;20504;43.214;27.920;2022-12-07T20:21:14;97507.38;;;14.01;100.00
34243;BME280;20504;43.214;27.920;2022-12-07T20:23:40;97489.38;;;14.03;100.00
34243;BME280;20504;43.214;27.920;2022-12-07T20:26:08;97482.41;;;14.02;100.00
34243;BME280;20504;43.214;27.920;2022-12-07T20:28:35;97474.53;;;13.94;100.00
34243;BME280;20504;43.214;27.920;2022-12-07T20:31:02;97462.88;;;13.95;100.00
34243;BME280;20504;43.214;27.920;2022-12-07T20:33:28;97446.44;;;13.91;100.00
34243;BME280;20504;43.214;27.920;2022-12-07T20:36:01;97428.25;;;13.95;100.00
34243;BME280;20504;43.214;27.920;2022-12-07T20:38:28;97399.50;;;13.90;100.00
34243;BME280;20504;43.214;27.920;2022-12-07T20:40:59;97396.44;;;13.87;100.00
34243;BME280;20504;43.214;27.920;2022-12-07T20:43:25;97352.25;;;13.99;100.00
34243;BME280;20504;43.214;27.920;2022-12-07T20:45:50;97322.13;;;14.05;100.00
34243;BME280;20504;43.214;27.920;2022-12-07T20:48:16;97308.94;;;13.90;100.00
34243;BME280;20504;43.214;27.920;2022-12-07T20:50:41;97330.84;;;13.86;100.00
34243;BME280;20504;43.214;27.920;2022-12-07T20:53:08;97316.31;;;13.82;100.00
34243;BME280;20504;43.214;27.920;2022-12-07T20:55:33;97310.56;;;13.85;100.00
34243;BME280;20504;43.214;27.920;2022-12-07T20:57:59;97278.22;;;13.88;100.00
34243;BME280;20504;43.214;27.920;2022-12-07T21:00:25;97293.94;;;13.76;100.00
34243;BME280;20504;43.214;27.920;2022-12-07T21:02:51;97263.47;;;13.92;100.00
34243;BME280;20504;43.214;27.920;2022-12-07T21:05:17;97253.19;;;13.82;100.00
34243;BME280;20504;43.214;27.920;2022-12-07T21:07:43;97236.84;;;13.92;100.00
34243;BME280;20504;43.214;27.920;2022-12-07T21:10:09;97230.88;;;13.90;100.00
34243;BME280;20504;43.214;27.920;2022-12-07T21:12:35;97226.78;;;13.87;100.00
34243;BME280;20504;43.214;27.920;2022-12-07T21:15:00;97211.03;;;13.92;100.00
34243;BME280;20504;43.214;27.920;2022-12-07T21:17:26;97212.22;;;13.77;100.00
34243;BME280;20504;43.214;27.920;2022-12-07T21:19:51;97192.78;;;13.89;100.00
34243;BME280;20504;43.214;27.920;2022-12-07T21:22:17;97195.44;;;13.89;100.00
34243;BME280;20504;43.214;27.920;2022-12-07T21:24:42;97179.25;;;13.91;100.00
34243;BME280;20504;43.214;27.920;2022-12-07T21:27:08;97166.34;;;13.88;100.00
34243;BME280;20504;43.214;27.920;2022-12-07T21:29:33;97169.47;;;13.98;100.00
34243;BME280;20504;43.214;27.920;2022-12-07T21:32:00;97170.44;;;13.90;100.00
34243;BME280;20504;43.214;27.920;2022-12-07T21:34:25;97161.66;;;13.97;100.00
34243;BME280;20504;43.214;27.920;2022-12-07T21:36:51;97163.13;;;13.99;100.00
34243;BME280;20504;43.214;27.920;2022-12-07T21:39:16;97168.41;;;13.92;100.00
34243;BME280;20504;43.214;27.920;2022-12-07T21:41:42;97173.72;;;13.79;100.00
34243;BME280;20504;43.214;27.920;2022-12-07T21:44:08;97167.59;;;13.92;100.00
34243;BME280;20504;43.214;27.920;2022-12-07T21:46:38;97164.31;;;13.90;100.00
34243;BME280;20504;43.214;27.920;2022-12-07T21:49:08;97161.63;;;13.90;100.00
34243;BME280;20504;43.214;27.920;2022-12-07T21:51:35;97156.31;;;13.77;100.00
34243;BME280;20504;43.214;27.920;2022-12-07T21:54:01;97164.50;;;13.82;100.00
34243;BME280;20504;43.214;27.920;2022-12-07T21:56:30;97189.03;;;13.71;100.00
34243;BME280;20504;43.214;27.920;2022-12-07T21:59:02;97170.97;;;13.59;100.00
34243;BME280;20504;43.214;27.920;2022-12-07T22:01:30;97164.66;;;13.67;100.00
34243;BME280;20504;43.214;27.920;2022-12-07T22:03:59;97151.13;;;13.69;100.00
34243;BME280;20504;43.214;27.920;2022-12-07T22:06:25;97143.97;;;13.69;100.00
34243;BME280;20504;43.214;27.920;2022-12-07T22:08:52;97115.91;;;13.73;100.00
34243;BME280;20504;43.214;27.920;2022-12-07T22:11:17;97116.72;;;13.67;100.00
34243;BME280;20504;43.214;27.920;2022-12-07T22:13:44;97098.09;;;13.74;100.00
34243;BME280;20504;43.214;27.920;2022-12-07T22:16:29;97093.38;;;13.69;100.00
34243;BME280;20504;43.214;27.920;2022-12-07T22:18:54;97086.00;;;13.71;100.00
34243;BME280;20504;43.214;27.920;2022-12-07T22:21:22;97086.81;;;13.72;100.00
34243;BME280;20504;43.214;27.920;2022-12-07T22:23:48;97067.78;;;13.75;100.00
34243;BME280;20504;43.214;27.920;2022-12-07T22:26:14;97072.06;;;13.62;100.00
34243;BME280;20504;43.214;27.920;2022-12-07T22:28:41;97054.88;;;13.65;100.00
34243;BME280;20504;43.214;27.920;2022-12-07T22:31:09;97053.22;;;13.64;100.00
34243;BME280;20504;43.214;27.920;2022-12-07T22:33:36;97047.69;;;13.59;100.00
34243;BME280;20504;43.214;27.920;2022-12-07T22:36:02;97055.69;;;13.59;100.00
34243;BME280;20504;43.214;27.920;2022-12-07T22:38:28;97048.31;;;13.68;100.00
34243;BME280;20504;43.214;27.920;2022-12-07T22:40:54;97042.59;;;13.64;100.00
34243;BME280;20504;43.214;27.920;2022-12-07T22:43:20;97047.09;;;13.63;100.00
34243;BME280;20504;43.214;27.920;2022-12-07T22:45:56;97037.66;;;13.61;100.00
34243;BME280;20504;43.214;27.920;2022-12-07T22:48:23;97073.63;;;13.37;100.00
34243;BME280;20504;43.214;27.920;2022-12-07T22:50:49;97051.13;;;13.40;100.00
34243;BME280;20504;43.214;27.920;2022-12-07T22:53:16;97034.56;;;13.44;100.00
34243;BME280;20504;43.214;27.920;2022-12-07T22:55:41;97034.34;;;13.39;100.00
34243;BME280;20504;43.214;27.920;2022-12-07T22:58:07;97069.28;;;13.23;100.00
34243;BME280;20504;43.214;27.920;2022-12-07T23:00:33;97077.59;;;13.07;100.00
34243;BME280;20504;43.214;27.920;2022-12-07T23:02:58;97051.00;;;13.13;100.00
34243;BME280;20504;43.214;27.920;2022-12-07T23:05:24;97008.72;;;13.25;100.00
34243;BME280;20504;43.214;27.920;2022-12-07T23:07:50;96991.75;;;13.26;100.00
34243;BME280;20504;43.214;27.920;2022-12-07T23:10:15;96988.88;;;13.27;100.00
34243;BME280;20504;43.214;27.920;2022-12-07T23:12:41;96970.25;;;13.21;100.00
34243;BME280;20504;43.214;27.920;2022-12-07T23:15:25;96972.91;;;13.21;100.00
34243;BME280;20504;43.214;27.920;2022-12-07T23:17:51;96955.72;;;13.23;100.00
34243;BME280;20504;43.214;27.920;2022-12-07T23:20:16;96953.81;;;13.11;100.00
34243;BME280;20504;43.214;27.920;2022-12-07T23:22:42;96914.31;;;13.08;100.00
34243;BME280;20504;43.214;27.920;2022-12-07T23:25:07;96905.72;;;13.06;100.00
34243;BME280;20504;43.214;27.920;2022-12-07T23:27:33;96919.81;;;12.99;100.00
34243;BME280;20504;43.214;27.920;2022-12-07T23:29:58;96907.56;;;13.05;100.00
34243;BME280;20504;43.214;27.920;2022-12-07T23:32:24;96896.94;;;13.05;100.00
34243;BME280;20504;43.214;27.920;2022-12-07T23:34:49;96888.31;;;13.10;100.00
34243;BME280;20504;43.214;27.920;2022-12-07T23:37:15;96897.50;;;13.00;100.00
34243;BME280;20504;43.214;27.920;2022-12-07T23:39:40;96910.81;;;12.94;100.00
34243;BME280;20504;43.214;27.920;2022-12-07T23:42:06;96909.78;;;12.95;100.00
34243;BME280;20504;43.214;27.920;2022-12-07T23:44:31;96895.06;;;12.99;100.00
34243;BME280;20504;43.214;27.920;2022-12-07T23:46:57;96892.59;;;12.97;100.00
34243;BME280;20504;43.214;27.920;2022-12-07T23:49:22;96892.59;;;12.97;100.00
34243;BME280;20504;43.214;27.920;2022-12-07T23:51:47;96944.91;;;12.77;100.00
34243;BME280;20504;43.214;27.920;2022-12-07T23:54:13;96895.88;;;12.93;100.00
34243;BME280;20504;43.214;27.920;2022-12-07T23:56:39;96900.38;;;12.92;100.00
34243;BME280;20504;43.214;27.920;2022-12-07T23:59:05;96895.06;;;12.99;100.00
